Dades meteomassalio
Diari Summary for Febrer 10, 2017 Units:  English    Metric   Both
« Previous Day
Next Day »
Diari Semanal Mensual Anual Personalitzat
  Maxima: Minima: Mijana:
Temperatura: TemperatureF °F 30.3 °F 41.6 °F
Rosada: DewpointF °F 28.0 °F 35.2 °F
Humitat: Humidity % 52 % 79 %
Velocitat del vent: WindSpeedMPH mph 0.0 mph 2.1 mph
Racha vent: WindSpeedGustMPH mph - -
Vent:- - SE
Pressio: PressureIn in 29.97 in -
Pluja: 0.00 in    
Historical Graphs
 
 
Tabular Data for Febrer 10, 2017
Time Temperature Dew Point Pressure Wind Wind Speed Wind Gust Humidity Rainfall Rate (Hourly) solar Conditions
TemperatureF °F DewpointF °F PressureIn in Calm     Humidity % HourlyPrecipIn in SolarRadiationWatts/m^2 W/m2 Conditions
00:00 37.5 °F 32.8 °F 30.02 in Calm     83 % 0.00 in 0.0 W/m2 CLR
00:05 37.4 °F 32.7 °F 30.02 in Calm     83 % 0.00 in 0.0 W/m2 CLR
00:10 37.2 °F 32.8 °F 30.02 in Calm     84 % 0.00 in 0.0 W/m2 CLR
00:15 37.1 °F 32.7 °F 30.02 in Calm     84 % 0.00 in 0.0 W/m2 CLR
00:20 36.9 °F 32.5 °F 30.02 in Calm     84 % 0.00 in 0.0 W/m2 CLR
00:25 36.7 °F 32.6 °F 30.02 in Calm     85 % 0.00 in 0.0 W/m2 CLR
00:30 36.5 °F 32.4 °F 30.02 in Calm     85 % 0.00 in 0.0 W/m2 CLR
00:35 36.3 °F 32.2 °F 30.02 in Calm     85 % 0.00 in 0.0 W/m2 CLR
00:40 36.2 °F 32.4 °F 30.02 in Calm     86 % 0.00 in 0.0 W/m2 CLR
00:45 36.0 °F 32.2 °F 30.02 in Calm     86 % 0.00 in 0.0 W/m2 CLR
00:50 35.8 °F 32.0 °F 30.02 in Calm     86 % 0.00 in 0.0 W/m2 CLR
00:55 35.6 °F 31.8 °F 30.02 in Calm     86 % 0.00 in 0.0 W/m2 CLR
01:00 35.4 °F 31.9 °F 30.01 in Calm     87 % 0.00 in 0.0 W/m2 CLR
01:05 35.2 °F 31.7 °F 30.01 in Calm     87 % 0.00 in 0.0 W/m2 CLR
01:10 35.1 °F 31.6 °F 30.01 in Calm     87 % 0.00 in 0.0 W/m2 CLR
01:15 34.9 °F 31.4 °F 30.01 in Calm     87 % 0.00 in 0.0 W/m2 CLR
01:21 34.9 °F 31.7 °F 30.01 in Calm     88 % 0.00 in 0.0 W/m2 CLR
01:26 34.8 °F 31.6 °F 30.01 in Calm     88 % 0.00 in 0.0 W/m2 CLR
01:31 34.6 °F 31.4 °F 30.00 in Calm     88 % 0.00 in 0.0 W/m2 CLR
01:36 34.5 °F 31.3 °F 30.00 in Calm     88 % 0.00 in 0.0 W/m2 CLR
01:41 34.4 °F 31.5 °F 30.00 in Calm     89 % 0.00 in 0.0 W/m2 CLR
01:46 34.5 °F 31.6 °F 30.00 in Calm     89 % 0.00 in 0.0 W/m2 CLR
01:51 34.5 °F 31.6 °F 30.00 in Calm     89 % 0.00 in 0.0 W/m2 CLR
01:56 34.5 °F 31.6 °F 30.00 in Calm     89 % 0.00 in 0.0 W/m2 CLR
02:01 34.4 °F 31.5 °F 30.00 in Calm     89 % 0.00 in 0.0 W/m2 CLR
02:06 34.4 °F 31.5 °F 30.00 in Calm     89 % 0.00 in 0.0 W/m2 CLR
02:11 34.3 °F 31.4 °F 30.00 in Calm     89 % 0.00 in 0.0 W/m2 CLR
02:16 34.3 °F 31.4 °F 30.00 in Calm     89 % 0.00 in 0.0 W/m2 CLR
02:21 34.3 °F 31.4 °F 30.00 in Calm     89 % 0.00 in 0.0 W/m2 CLR
02:26 34.4 °F 31.8 °F 30.00 in Calm     90 % 0.00 in 0.0 W/m2 CLR
02:31 34.4 °F 31.5 °F 30.00 in Calm     89 % 0.00 in 0.0 W/m2 CLR
02:41 34.2 °F 31.3 °F 30.00 in Calm     89 % 0.00 in 0.0 W/m2 CLR
02:46 34.2 °F 31.3 °F 30.00 in Calm     89 % 0.00 in 0.0 W/m2 CLR
02:49 34.1 °F 31.2 °F 30.01 in Calm     89 % 0.00 in 0.0 W/m2 CLR
02:54 34.0 °F 31.1 °F 30.01 in Calm     89 % 0.00 in 0.0 W/m2 CLR
02:59 34.0 °F 31.4 °F 30.01 in Calm     90 % 0.00 in 0.0 W/m2 CLR
03:04 33.9 °F 31.3 °F 30.01 in Calm     90 % 0.00 in 0.0 W/m2 CLR
03:09 33.9 °F 31.3 °F 30.01 in Calm     90 % 0.00 in 0.0 W/m2 CLR
03:12 34.0 °F 31.4 °F 30.01 in Calm     90 % 0.00 in 0.0 W/m2 CLR
03:17 34.0 °F 31.4 °F 30.01 in Calm     90 % 0.00 in 0.0 W/m2 CLR
03:22 34.1 °F 31.2 °F 30.01 in Calm     89 % 0.00 in 0.0 W/m2 CLR
03:27 33.9 °F 31.0 °F 30.00 in Calm     89 % 0.00 in 0.0 W/m2 CLR
03:32 33.7 °F 30.8 °F 30.00 in Calm     89 % 0.00 in 0.0 W/m2 CLR
03:37 33.4 °F 30.5 °F 30.00 in Calm     89 % 0.00 in 0.0 W/m2 CLR
03:38 33.4 °F 30.5 °F 30.00 in Calm     89 % 0.00 in 0.0 W/m2 CLR
03:43 33.0 °F 30.1 °F 30.00 in Calm     89 % 0.00 in 0.0 W/m2 CLR
03:48 33.0 °F 30.4 °F 30.00 in Calm     90 % 0.00 in 0.0 W/m2 CLR
03:53 33.0 °F 30.4 °F 30.00 in Calm     90 % 0.00 in 0.0 W/m2 CLR
03:58 32.9 °F 30.3 °F 30.00 in Calm     90 % 0.00 in 0.0 W/m2 CLR
04:03 32.8 °F 30.2 °F 30.00 in Calm     90 % 0.00 in 0.0 W/m2 CLR
04:08 32.7 °F 30.1 °F 30.00 in Calm     90 % 0.00 in 0.0 W/m2 CLR
04:13 32.4 °F 29.5 °F 30.00 in Calm     89 % 0.00 in 0.0 W/m2 CLR
04:18 32.2 °F 29.6 °F 29.99 in Calm     90 % 0.00 in 0.0 W/m2 CLR
04:23 32.2 °F 29.6 °F 29.99 in Calm     90 % 0.00 in 0.0 W/m2 CLR
04:28 31.9 °F 29.3 °F 30.00 in Calm     90 % 0.00 in 0.0 W/m2 CLR
04:33 31.6 °F 29.0 °F 30.00 in Calm     90 % 0.00 in 0.0 W/m2 CLR
04:38 31.7 °F 29.1 °F 29.99 in Calm     90 % 0.00 in 0.0 W/m2 CLR
04:43 31.6 °F 29.0 °F 30.00 in Calm     90 % 0.00 in 0.0 W/m2 CLR
04:48 31.5 °F 28.9 °F 29.99 in Calm     90 % 0.00 in 0.0 W/m2 CLR
04:53 31.3 °F 28.7 °F 30.00 in Calm     90 % 0.00 in 0.0 W/m2 CLR
04:58 31.2 °F 28.6 °F 30.00 in Calm     90 % 0.00 in 0.0 W/m2 CLR
05:03 31.0 °F 28.4 °F 29.99 in Calm     90 % 0.00 in 0.0 W/m2 CLR
05:08 30.9 °F 28.3 °F 29.99 in Calm     90 % 0.00 in 0.0 W/m2 CLR
05:13 30.9 °F 28.3 °F 29.99 in Calm     90 % 0.00 in 0.0 W/m2 CLR
05:18 30.8 °F 28.5 °F 29.99 in Calm     91 % 0.00 in 0.0 W/m2 CLR
05:23 30.6 °F 28.3 °F 29.99 in Calm     91 % 0.00 in 0.0 W/m2 CLR
05:28 30.6 °F 28.3 °F 29.99 in Calm     91 % 0.00 in 0.0 W/m2 CLR
05:33 30.6 °F 28.3 °F 29.99 in Calm     91 % 0.00 in 0.0 W/m2 CLR
05:38 30.6 °F 28.3 °F 29.99 in Calm     91 % 0.00 in 0.0 W/m2 CLR
05:43 30.4 °F 28.1 °F 29.99 in Calm     91 % 0.00 in 0.0 W/m2 CLR
05:48 30.4 °F 28.1 °F 29.99 in Calm     91 % 0.00 in 0.0 W/m2 CLR
05:53 30.3 °F 28.0 °F 29.99 in Calm     91 % 0.00 in 0.0 W/m2 CLR
05:58 30.4 °F 28.1 °F 29.99 in Calm     91 % 0.00 in 0.0 W/m2 CLR
06:03 30.5 °F 28.2 °F 29.98 in Calm     91 % 0.00 in 0.0 W/m2 CLR
06:08 30.5 °F 28.2 °F 29.98 in Calm     91 % 0.00 in 0.0 W/m2 CLR
06:13 30.5 °F 28.2 °F 29.98 in Calm     91 % 0.00 in 0.0 W/m2 CLR
06:18 30.6 °F 28.3 °F 29.98 in Calm     91 % 0.00 in 0.0 W/m2 CLR
06:23 30.8 °F 28.5 °F 29.98 in Calm     91 % 0.00 in 0.0 W/m2 CLR
06:28 30.9 °F 28.6 °F 29.98 in Calm     91 % 0.00 in 0.0 W/m2 CLR
06:33 30.9 °F 28.6 °F 29.98 in Calm     91 % 0.00 in 0.0 W/m2 CLR
06:38 31.0 °F 28.7 °F 29.98 in Calm     91 % 0.00 in 0.0 W/m2 CLR
06:43 30.9 °F 28.6 °F 29.98 in Calm     91 % 0.00 in 0.0 W/m2 CLR
06:48 30.9 °F 28.6 °F 29.99 in Calm     91 % 0.00 in 0.0 W/m2 CLR
06:53 31.0 °F 28.7 °F 29.99 in Calm     91 % 0.00 in 0.0 W/m2 CLR
06:58 31.0 °F 28.7 °F 29.99 in Calm     91 % 0.00 in 0.0 W/m2 CLR
07:03 31.0 °F 28.7 °F 29.99 in Calm     91 % 0.00 in 0.0 W/m2 CLR
07:09 31.1 °F 28.8 °F 29.99 in Calm     91 % 0.00 in 0.0 W/m2 CLR
07:14 31.0 °F 28.4 °F 29.99 in Calm     90 % 0.00 in 0.0 W/m2 CLR
07:19 30.9 °F 28.6 °F 29.99 in Calm     91 % 0.00 in 0.0 W/m2 CLR
07:24 31.0 °F 28.7 °F 29.99 in Calm     91 % 0.00 in 0.0 W/m2 CLR
07:29 31.1 °F 28.5 °F 29.99 in Calm     90 % 0.00 in 0.0 W/m2 CLR
07:34 31.1 °F 28.5 °F 29.99 in Calm     90 % 0.00 in 0.0 W/m2 CLR
07:39 31.1 °F 28.5 °F 29.99 in Calm     90 % 0.00 in 0.0 W/m2 CLR
07:44 31.2 °F 28.6 °F 30.00 in Calm     90 % 0.00 in 0.0 W/m2 CLR
07:49 31.2 °F 28.6 °F 30.00 in Calm     90 % 0.00 in 0.0 W/m2 CLR
07:54 31.2 °F 28.6 °F 30.00 in Calm     90 % 0.00 in 0.0 W/m2 CLR
07:59 31.1 °F 28.5 °F 30.00 in Calm     90 % 0.00 in 0.0 W/m2 CLR
08:04 30.9 °F 28.3 °F 30.01 in Calm     90 % 0.00 in 5.0 W/m2 OVC
08:09 30.8 °F 28.2 °F 30.01 in Calm     90 % 0.00 in 5.0 W/m2 OVC
08:14 30.8 °F 28.2 °F 30.01 in Calm     90 % 0.00 in 9.0 W/m2 BKN
08:19 30.7 °F 28.1 °F 30.01 in Calm     90 % 0.00 in 12.0 W/m2 BKN
08:24 30.7 °F 28.1 °F 30.01 in Calm     90 % 0.00 in 18.0 W/m2 BKN
08:28 30.7 °F 28.1 °F 30.02 in Calm     90 % 0.00 in 21.0 W/m2 BKN
08:33 30.8 °F 28.5 °F 30.02 in Calm     91 % 0.00 in 28.0 W/m2 BKN
08:38 30.8 °F 28.5 °F 30.02 in Calm     91 % 0.00 in 35.0 W/m2 BKN
08:43 30.9 °F 28.6 °F 30.02 in Calm     91 % 0.00 in 44.0 W/m2 BKN
08:48 31.0 °F 28.7 °F 30.02 in Calm     91 % 0.00 in 51.0 W/m2 SCT
08:53 31.2 °F 28.9 °F 30.02 in Calm     91 % 0.00 in 62.0 W/m2 SCT
08:58 31.4 °F 29.1 °F 30.02 in Calm     91 % 0.00 in 79.0 W/m2 FEW
09:03 31.6 °F 29.3 °F 30.02 in Calm     91 % 0.00 in 91.0 W/m2 FEW
09:08 32.0 °F 29.7 °F 30.02 in Calm     91 % 0.00 in 84.0 W/m2 CLR
09:13 32.2 °F 29.9 °F 30.02 in Calm     91 % 0.00 in 93.0 W/m2 CLR
09:18 32.4 °F 30.1 °F 30.02 in Calm     91 % 0.00 in 98.0 W/m2 CLR
09:23 32.7 °F 30.4 °F 30.02 in Calm     91 % 0.00 in 111.0 W/m2 CLR
09:28 33.0 °F 30.4 °F 30.02 in Calm     90 % 0.00 in 118.0 W/m2 CLR
09:33 33.4 °F 30.8 °F 30.02 in Calm     90 % 0.00 in 128.0 W/m2 CLR
09:39 33.8 °F 31.2 °F 30.02 in Calm     90 % 0.00 in 144.0 W/m2 CLR
09:44 34.2 °F 31.6 °F 30.02 in Calm     90 % 0.00 in 171.0 W/m2 CLR
09:49 34.6 °F 32.0 °F 30.02 in Calm     90 % 0.00 in 223.0 W/m2 CLR
09:54 35.1 °F 32.2 °F 30.02 in Calm     89 % 0.00 in 287.0 W/m2 CLR
09:59 35.8 °F 33.2 °F 30.02 in Calm     90 % 0.00 in 288.0 W/m2 CLR
10:04 37.0 °F 34.1 °F 30.02 in Calm     89 % 0.00 in 274.0 W/m2 CLR
10:09 37.9 °F 34.4 °F 30.02 in Calm     87 % 0.00 in 346.0 W/m2 CLR
10:14 38.7 °F 34.9 °F 30.02 in Calm     86 % 0.00 in 318.0 W/m2 CLR
10:19 39.4 °F 35.3 °F 30.03 in Calm     85 % 0.00 in 264.0 W/m2 CLR
10:24 40.3 °F 35.8 °F 30.03 in Calm     84 % 0.00 in 253.0 W/m2 CLR
10:29 40.9 °F 35.8 °F 30.03 in Calm     82 % 0.00 in 267.0 W/m2 CLR
10:34 41.5 °F 36.4 °F 30.03 in Calm     82 % 0.00 in 353.0 W/m2 CLR
10:39 42.6 °F 37.2 °F 30.03 in Calm     81 % 0.00 in 309.0 W/m2 CLR
10:44 43.3 °F 37.5 °F 30.03 in Calm     80 % 0.00 in 338.0 W/m2 CLR
10:49 44.2 °F 38.1 °F 30.03 in Calm     79 % 0.00 in 387.0 W/m2 CLR
10:54 45.3 °F 38.8 °F 30.03 in Calm     78 % 0.00 in 469.0 W/m2 CLR
10:59 46.5 °F 39.7 °F 30.03 in Calm     77 % 0.00 in 406.0 W/m2 CLR
11:04 47.4 °F 39.9 °F 30.03 in Calm     75 % 0.00 in 413.0 W/m2 CLR
11:09 48.3 °F 40.7 °F 30.03 in Calm     75 % 0.00 in 348.0 W/m2 CLR
11:14 49.2 °F 41.3 °F 30.03 in Calm     74 % 0.00 in 403.0 W/m2 CLR
11:19 49.8 °F 41.5 °F 30.03 in Calm     73 % 0.00 in 415.0 W/m2 CLR
11:24 50.3 °F 41.6 °F 30.03 in Calm     72 % 0.00 in 366.0 W/m2 CLR
11:29 50.8 °F 41.7 °F 30.03 in Calm     71 % 0.00 in 350.0 W/m2 CLR
11:34 51.2 °F 41.7 °F 30.03 in Calm     70 % 0.00 in 399.0 W/m2 CLR
11:39 51.5 °F 42.0 °F 30.03 in Calm     70 % 0.00 in 445.0 W/m2 CLR
11:44 52.0 °F 42.5 °F 30.03 in Calm     70 % 0.00 in 469.0 W/m2 CLR
11:49 52.5 °F 41.9 °F 30.03 in Calm     67 % 0.00 in 410.0 W/m2 CLR
11:54 52.9 °F 41.8 °F 30.03 in Calm     66 % 0.00 in 352.0 W/m2 CLR
11:59 53.0 °F 41.9 °F 30.03 in Calm     66 % 0.00 in 413.0 W/m2 CLR
12:04 53.4 °F 41.9 °F 30.03 in Calm     65 % 0.00 in 568.0 W/m2 CLR
12:09 54.1 °F 41.8 °F 30.02 in ENE 5.0 mph 5.0 mph 63 % 0.00 in 490.0 W/m2 CLR
12:14 54.1 °F 41.4 °F 30.02 in East 6.0 mph 6.0 mph 62 % 0.00 in 526.0 W/m2 CLR
12:19 54.1 °F 40.5 °F 30.02 in East 2.3 mph 2.3 mph 60 % 0.00 in 584.0 W/m2 CLR
12:24 54.4 °F 40.8 °F 30.01 in East 3.5 mph 3.5 mph 60 % 0.00 in 503.0 W/m2 CLR
12:29 54.4 °F 40.4 °F 30.01 in East 3.5 mph 3.5 mph 59 % 0.00 in 457.0 W/m2 CLR
12:34 54.7 °F 39.8 °F 30.01 in SE 4.6 mph 4.6 mph 57 % 0.00 in 492.0 W/m2 CLR
12:39 54.7 °F 38.8 °F 30.01 in SSE 8.1 mph 8.1 mph 55 % 0.00 in 431.0 W/m2 CLR
12:44 54.6 °F 38.7 °F 30.01 in SSE 13.8 mph 13.8 mph 55 % 0.00 in 443.0 W/m2 CLR
12:49 54.6 °F 39.7 °F 30.01 in SSE 8.1 mph 8.1 mph 57 % 0.00 in 480.0 W/m2 CLR
12:54 54.5 °F 39.6 °F 30.01 in SSE 7.0 mph 7.0 mph 57 % 0.00 in 496.0 W/m2 CLR
12:59 54.9 °F 39.9 °F 30.01 in SSE 10.4 mph 10.4 mph 57 % 0.00 in 534.0 W/m2 CLR
13:04 54.9 °F 39.5 °F 30.01 in SSE 12.0 mph 12.0 mph 56 % 0.00 in 577.0 W/m2 CLR
13:09 55.0 °F 40.0 °F 30.01 in South 3.5 mph 3.5 mph 57 % 0.00 in 506.0 W/m2 CLR
13:14 55.5 °F 40.0 °F 30.01 in South 10.4 mph 10.4 mph 56 % 0.00 in 522.0 W/m2 CLR
13:19 55.4 °F 39.5 °F 30.00 in South 12.7 mph 12.7 mph 55 % 0.00 in 485.0 W/m2 CLR
13:24 55.2 °F 39.8 °F 30.00 in South 8.1 mph 8.1 mph 56 % 0.00 in 517.0 W/m2 CLR
13:29 55.4 °F 39.5 °F 30.00 in South 6.9 mph 6.9 mph 55 % 0.00 in 536.0 W/m2 CLR
13:34 55.3 °F 39.4 °F 30.00 in South 6.9 mph 6.9 mph 55 % 0.00 in 489.0 W/m2 CLR
13:39 55.5 °F 39.6 °F 30.00 in SSE 10.4 mph 10.4 mph 55 % 0.00 in 512.0 W/m2 CLR
13:44 55.5 °F 38.6 °F 30.00 in SSE 6.9 mph 8.6 mph 53 % 0.00 in 524.0 W/m2 CLR
13:49 55.5 °F 38.6 °F 30.00 in SSE 10.4 mph 10.4 mph 53 % 0.00 in 571.0 W/m2 CLR
13:54 55.6 °F 38.7 °F 29.99 in South 15.0 mph 15.0 mph 53 % 0.00 in 320.0 W/m2 CLR
13:59 55.3 °F 38.4 °F 29.99 in SSW 10.4 mph 10.4 mph 53 % 0.00 in 364.0 W/m2 CLR
14:04 55.4 °F 38.5 °F 29.99 in South 9.2 mph 9.2 mph 53 % 0.00 in 387.0 W/m2 CLR
14:09 55.2 °F 38.4 °F 29.99 in SE 10.4 mph 10.4 mph 53 % 0.00 in 396.0 W/m2 CLR
14:14 55.5 °F 38.6 °F 29.99 in SE 6.9 mph 6.9 mph 53 % 0.00 in 455.0 W/m2 CLR
14:19 55.7 °F 38.3 °F 29.99 in SSE 9.2 mph 9.2 mph 52 % 0.00 in 330.0 W/m2 CLR
14:24 55.3 °F 38.0 °F 29.99 in SSE 11.0 mph 11.0 mph 52 % 0.00 in 253.0 W/m2 CLR
14:30 54.9 °F 37.6 °F 29.99 in South 6.0 mph 6.0 mph 52 % 0.00 in 236.0 W/m2 CLR
14:35 54.6 °F 37.8 °F 29.98 in SSE 5.8 mph 5.8 mph 53 % 0.00 in 260.0 W/m2 CLR
14:40 54.6 °F 38.3 °F 29.98 in SSE 10.4 mph 10.4 mph 54 % 0.00 in 244.0 W/m2 CLR
14:45 54.5 °F 38.2 °F 29.99 in South 9.2 mph 9.2 mph 54 % 0.00 in 237.0 W/m2 CLR
14:50 54.5 °F 38.7 °F 29.99 in SSW 5.8 mph 5.8 mph 55 % 0.00 in 234.0 W/m2 CLR
14:55 54.4 °F 39.0 °F 29.99 in South 5.0 mph 5.0 mph 56 % 0.00 in 223.0 W/m2 CLR
15:00 54.3 °F 38.9 °F 29.98 in South 5.8 mph 5.8 mph 56 % 0.00 in 221.0 W/m2 CLR
15:05 54.2 °F 38.4 °F 29.98 in South 9.0 mph 9.0 mph 55 % 0.00 in 211.0 W/m2 CLR
15:10 54.2 °F 38.8 °F 29.99 in South 9.2 mph 9.2 mph 56 % 0.00 in 195.0 W/m2 CLR
15:15 54.1 °F 38.7 °F 29.99 in South 8.1 mph 8.1 mph 56 % 0.00 in 183.0 W/m2 CLR
15:20 54.1 °F 40.5 °F 29.99 in South 8.1 mph 8.1 mph 60 % 0.00 in 179.0 W/m2 CLR
15:25 53.7 °F 42.2 °F 29.98 in SE 7.0 mph 7.0 mph 65 % 0.00 in 174.0 W/m2 CLR
15:30 53.1 °F 42.0 °F 29.98 in ESE 9.2 mph 9.2 mph 66 % 0.00 in 172.0 W/m2 CLR
15:35 52.9 °F 42.2 °F 29.98 in SE 11.5 mph 11.5 mph 67 % 0.00 in 171.0 W/m2 CLR
15:40 52.8 °F 42.1 °F 29.98 in ESE 8.0 mph 8.0 mph 67 % 0.00 in 163.0 W/m2 CLR
15:45 52.7 °F 42.0 °F 29.98 in ESE 8.1 mph 8.1 mph 67 % 0.00 in 183.0 W/m2 CLR
15:50 52.7 °F 42.0 °F 29.98 in ESE 9.2 mph 9.2 mph 67 % 0.00 in 257.0 W/m2 CLR
15:55 52.8 °F 42.5 °F 29.98 in ESE 9.0 mph 9.0 mph 68 % 0.00 in 279.0 W/m2 CLR
16:00 52.9 °F 42.6 °F 29.97 in ESE 8.0 mph 8.0 mph 68 % 0.00 in 257.0 W/m2 CLR
16:05 52.8 °F 42.5 °F 29.97 in ESE 8.1 mph 8.1 mph 68 % 0.00 in 213.0 W/m2 CLR
16:10 52.7 °F 42.4 °F 29.98 in ESE 8.1 mph 8.1 mph 68 % 0.00 in 193.0 W/m2 CLR
16:15 52.8 °F 42.9 °F 29.97 in ESE 3.5 mph 3.5 mph 69 % 0.00 in 274.0 W/m2 CLR
16:20 53.2 °F 42.9 °F 29.98 in ESE 4.0 mph 4.0 mph 68 % 0.00 in 357.0 W/m2 CLR
16:25 53.5 °F 42.0 °F 29.97 in SE 8.1 mph 8.1 mph 65 % 0.00 in 338.0 W/m2 CLR
16:30 53.7 °F 42.6 °F 29.97 in SE 8.1 mph 8.1 mph 66 % 0.00 in 257.0 W/m2 CLR
16:35 53.4 °F 42.7 °F 29.97 in ESE 4.6 mph 4.6 mph 67 % 0.00 in 209.0 W/m2 CLR
16:40 53.3 °F 42.2 °F 29.97 in ESE 5.8 mph 5.8 mph 66 % 0.00 in 237.0 W/m2 CLR
16:45 53.3 °F 42.2 °F 29.97 in ESE 6.9 mph 6.9 mph 66 % 0.00 in 183.0 W/m2 CLR
16:50 53.2 °F 42.1 °F 29.97 in ESE 8.1 mph 8.1 mph 66 % 0.00 in 176.0 W/m2 CLR
16:55 53.0 °F 42.3 °F 29.97 in ESE 5.0 mph 5.0 mph 67 % 0.00 in 174.0 W/m2 CLR
17:00 53.0 °F 42.3 °F 29.97 in ESE 5.8 mph 5.8 mph 67 % 0.00 in 132.0 W/m2 CLR
17:05 52.9 °F 42.2 °F 29.97 in ESE 8.1 mph 8.1 mph 67 % 0.00 in 174.0 W/m2 CLR
17:10 52.8 °F 42.5 °F 29.97 in ESE 5.8 mph 5.8 mph 68 % 0.00 in 146.0 W/m2 CLR
17:15 52.6 °F 41.9 °F 29.97 in ESE 4.0 mph 4.0 mph 67 % 0.00 in 84.0 W/m2 CLR
17:20 52.4 °F 42.1 °F 29.97 in SE 6.9 mph 6.9 mph 68 % 0.00 in 79.0 W/m2 CLR
17:25 52.4 °F 41.8 °F 29.97 in SE 4.0 mph 4.0 mph 67 % 0.00 in 114.0 W/m2 CLR
17:28 52.3 °F 42.0 °F 29.98 in SE 8.1 mph 8.1 mph 68 % 0.00 in 109.0 W/m2 CLR
17:33 52.0 °F 42.1 °F 29.98 in ESE 4.6 mph 4.6 mph 69 % 0.00 in 100.0 W/m2 CLR
17:38 51.8 °F 41.9 °F 29.98 in ESE 5.0 mph 5.1 mph 69 % 0.00 in 70.0 W/m2 FEW
17:43 51.6 °F 41.8 °F 29.98 in ESE 6.9 mph 6.9 mph 69 % 0.00 in 56.0 W/m2 SCT
17:48 51.4 °F 41.9 °F 29.98 in ESE 5.8 mph 5.8 mph 70 % 0.00 in 58.0 W/m2 SCT
17:53 51.2 °F 41.7 °F 29.98 in SE 5.0 mph 5.0 mph 70 % 0.00 in 47.0 W/m2 SCT
17:58 51.1 °F 41.7 °F 29.98 in SE 3.0 mph 3.0 mph 70 % 0.00 in 35.0 W/m2 BKN
18:00 51.0 °F 41.9 °F 29.99 in SE 4.0 mph 4.0 mph 71 % 0.00 in 30.0 W/m2 BKN
18:05 50.8 °F 41.4 °F 29.99 in SE 5.8 mph 5.8 mph 70 % 0.00 in 23.0 W/m2 BKN
18:09 50.6 °F 41.2 °F 29.99 in SE 5.8 mph 5.8 mph 70 % 0.00 in 19.0 W/m2 BKN
18:11 50.6 °F 41.2 °F 29.99 in ESE 4.6 mph 4.6 mph 70 % 0.00 in 18.0 W/m2 BKN
18:14 50.4 °F 41.3 °F 29.99 in ESE 5.0 mph 5.0 mph 71 % 0.00 in 14.0 W/m2 BKN
18:16 50.3 °F 41.3 °F 29.99 in ESE 5.8 mph 5.8 mph 71 % 0.00 in 14.0 W/m2 BKN
18:21 50.1 °F 41.4 °F 30.00 in ESE 6.9 mph 6.9 mph 72 % 0.00 in 9.0 W/m2 BKN
18:25 49.8 °F 41.1 °F 30.00 in SE 4.6 mph 4.6 mph 72 % 0.00 in 5.0 W/m2 OVC
18:28 49.6 °F 41.3 °F 30.00 in SE 4.6 mph 4.6 mph 73 % 0.00 in 0.0 W/m2 OVC
18:30 49.5 °F 41.2 °F 30.00 in SE 5.8 mph 5.8 mph 73 % 0.00 in 0.0 W/m2 OVC
18:35 49.2 °F 40.9 °F 30.00 in SE 3.5 mph 3.5 mph 73 % 0.00 in 0.0 W/m2 OVC
18:40 48.9 °F 41.0 °F 30.00 in SE 3.5 mph 3.5 mph 74 % 0.00 in 0.0 W/m2 CLR
18:45 48.7 °F 40.8 °F 30.00 in SE 1.2 mph   74 % 0.00 in 0.0 W/m2 CLR
18:48 48.5 °F 40.6 °F 30.00 in Calm     74 % 0.00 in 0.0 W/m2 CLR
18:50 48.4 °F 40.8 °F 30.00 in ESE 3.5 mph 3.5 mph 75 % 0.00 in 0.0 W/m2 CLR
18:55 48.2 °F 40.6 °F 30.00 in Calm     75 % 0.00 in 0.0 W/m2 CLR
19:00 47.9 °F 40.4 °F 30.00 in SE 3.5 mph 3.5 mph 75 % 0.00 in 0.0 W/m2 CLR
19:05 47.7 °F 40.5 °F 30.00 in Calm     76 % 0.00 in 0.0 W/m2 CLR
19:10 47.5 °F 40.3 °F 30.01 in Calm     76 % 0.00 in 0.0 W/m2 CLR
19:15 47.2 °F 40.4 °F 30.01 in SSE 3.0 mph 3.0 mph 77 % 0.00 in 0.0 W/m2 CLR
19:20 47.0 °F 40.2 °F 30.01 in SE 3.5 mph 3.5 mph 77 % 0.00 in 0.0 W/m2 CLR
19:25 46.9 °F 40.4 °F 30.01 in ESE 1.2 mph 1.2 mph 78 % 0.00 in 0.0 W/m2 CLR
19:30 46.8 °F 40.3 °F 30.02 in ESE 3.5 mph 3.5 mph 78 % 0.00 in 0.0 W/m2 CLR
19:35 46.7 °F 40.2 °F 30.02 in SE 3.5 mph 3.5 mph 78 % 0.00 in 0.0 W/m2 CLR
19:40 46.6 °F 40.1 °F 30.02 in SE 2.3 mph 2.3 mph 78 % 0.00 in 0.0 W/m2 CLR
19:45 46.4 °F 39.9 °F 30.02 in Calm     78 % 0.00 in 0.0 W/m2 CLR
19:50 46.1 °F 39.9 °F 30.02 in ESE 2.3 mph 2.3 mph 79 % 0.00 in 0.0 W/m2 CLR
19:55 45.8 °F 39.7 °F 30.02 in ESE 2.3 mph 2.3 mph 79 % 0.00 in 0.0 W/m2 CLR
20:00 45.4 °F 39.6 °F 30.02 in Calm     80 % 0.00 in 0.0 W/m2 CLR
20:05 45.2 °F 39.4 °F 30.03 in Calm     80 % 0.00 in 0.0 W/m2 CLR
20:11 45.0 °F 39.5 °F 30.02 in Calm     81 % 0.00 in 0.0 W/m2 CLR
20:16 44.8 °F 39.3 °F 30.02 in Calm     81 % 0.00 in 0.0 W/m2 CLR
20:20 44.7 °F 39.2 °F 30.03 in Calm     81 % 0.00 in 0.0 W/m2 CLR
20:26 44.4 °F 38.9 °F 30.02 in Calm     81 % 0.00 in 0.0 W/m2 CLR
20:31 44.3 °F 38.8 °F 30.03 in Calm     81 % 0.00 in 0.0 W/m2 CLR
20:36 44.2 °F 38.7 °F 30.03 in Calm     81 % 0.00 in 0.0 W/m2 CLR
20:41 44.1 °F 38.6 °F 30.03 in Calm     81 % 0.00 in 0.0 W/m2 CLR
20:46 44.0 °F 38.5 °F 30.03 in Calm     81 % 0.00 in 0.0 W/m2 CLR
20:51 43.8 °F 38.7 °F 30.03 in Calm     82 % 0.00 in 0.0 W/m2 CLR
20:56 43.6 °F 38.2 °F 30.03 in Calm     81 % 0.00 in 0.0 W/m2 CLR
21:01 43.1 °F 37.7 °F 30.04 in Calm     81 % 0.00 in 0.0 W/m2 CLR
21:06 42.4 °F 37.3 °F 30.04 in Calm     82 % 0.00 in 0.0 W/m2 CLR
21:11 42.1 °F 37.6 °F 30.04 in Calm     84 % 0.00 in 0.0 W/m2 CLR
21:16 41.9 °F 37.4 °F 30.04 in Calm     84 % 0.00 in 0.0 W/m2 CLR
21:21 41.5 °F 37.0 °F 30.04 in Calm     84 % 0.00 in 0.0 W/m2 CLR
21:26 41.1 °F 36.6 °F 30.05 in Calm     84 % 0.00 in 0.0 W/m2 CLR
21:31 40.9 °F 36.7 °F 30.05 in Calm     85 % 0.00 in 0.0 W/m2 CLR
21:36 40.8 °F 36.9 °F 30.05 in Calm     86 % 0.00 in 0.0 W/m2 CLR
21:41 40.8 °F 36.9 °F 30.05 in Calm     86 % 0.00 in 0.0 W/m2 CLR
21:46 40.5 °F 36.6 °F 30.05 in Calm     86 % 0.00 in 0.0 W/m2 CLR
21:51 40.0 °F 35.9 °F 30.05 in Calm     85 % 0.00 in 0.0 W/m2 CLR
21:56 39.6 °F 35.5 °F 30.05 in Calm     85 % 0.00 in 0.0 W/m2 CLR
22:01 39.2 °F 35.4 °F 30.05 in Calm     86 % 0.00 in 0.0 W/m2 CLR
22:06 39.2 °F 35.7 °F 30.05 in Calm     87 % 0.00 in 0.0 W/m2 CLR
22:11 39.2 °F 35.9 °F 30.05 in Calm     88 % 0.00 in 0.0 W/m2 CLR
22:16 38.7 °F 34.9 °F 30.05 in Calm     86 % 0.00 in 0.0 W/m2 CLR
22:21 38.2 °F 34.7 °F 30.05 in Calm     87 % 0.00 in 0.0 W/m2 CLR
22:26 37.8 °F 34.3 °F 30.05 in Calm     87 % 0.00 in 0.0 W/m2 CLR
22:31 37.6 °F 34.4 °F 30.05 in Calm     88 % 0.00 in 0.0 W/m2 CLR
22:36 37.5 °F 34.3 °F 30.05 in Calm     88 % 0.00 in 0.0 W/m2 CLR
22:41 37.2 °F 34.3 °F 30.06 in Calm     89 % 0.00 in 0.0 W/m2 CLR
22:46 37.0 °F 33.8 °F 30.06 in Calm     88 % 0.00 in 0.0 W/m2 CLR
22:51 37.1 °F 34.2 °F 30.06 in Calm     89 % 0.00 in 0.0 W/m2 CLR
22:56 37.0 °F 34.1 °F 30.06 in Calm     89 % 0.00 in 0.0 W/m2 CLR
23:01 36.6 °F 33.7 °F 30.06 in Calm     89 % 0.00 in 0.0 W/m2 CLR
23:06 36.2 °F 33.3 °F 30.06 in Calm     89 % 0.00 in 0.0 W/m2 CLR
23:11 35.8 °F 32.9 °F 30.06 in Calm     89 % 0.00 in 0.0 W/m2 CLR
23:16 35.5 °F 32.6 °F 30.06 in Calm     89 % 0.00 in 0.0 W/m2 CLR
23:21 35.4 °F 32.8 °F 30.06 in Calm     90 % 0.00 in 0.0 W/m2 CLR
23:26 35.4 °F 32.8 °F 30.06 in Calm     90 % 0.00 in 0.0 W/m2 CLR
23:31 35.3 °F 32.7 °F 30.06 in Calm     90 % 0.00 in 0.0 W/m2 CLR
23:36 35.2 °F 32.6 °F 30.06 in Calm     90 % 0.00 in 0.0 W/m2 CLR
23:41 35.0 °F 32.4 °F 30.06 in Calm     90 % 0.00 in 0.0 W/m2 CLR
23:46 34.8 °F 32.2 °F 30.06 in Calm     90 % 0.00 in 0.0 W/m2 CLR
23:51 34.8 °F 32.2 °F 30.06 in Calm     90 % 0.00 in 0.0 W/m2 CLR
23:57 34.6 °F 32.0 °F 30.07 in Calm     90 % 0.00 in 0.0 W/m2 CLR
Lo Temps de Massalio
Compliments of Weather Underground - 1.25 mb